createdAt,value
2019-06-15T00:01:47.819Z,8.87
2019-06-15T00:04:17.819Z,10.63
2019-06-15T00:06:47.908Z,9.48
2019-06-15T00:09:17.951Z,9.50
2019-06-15T00:11:47.820Z,10.13
2019-06-15T00:14:17.854Z,10.17
2019-06-15T00:16:47.814Z,10.00
2019-06-15T00:19:17.906Z,11.60
2019-06-15T00:21:47.944Z,10.97
2019-06-15T00:24:18.134Z,12.93
2019-06-15T00:26:48.078Z,12.40
2019-06-15T00:29:18.099Z,12.15
2019-06-15T00:31:48.177Z,13.93
2019-06-15T00:34:18.088Z,14.40
2019-06-15T00:36:48.114Z,12.80
2019-06-15T00:39:18.066Z,11.63
2019-06-15T00:41:48.048Z,13.13
2019-06-15T00:44:18.127Z,11.83
2019-06-15T00:46:47.995Z,10.77
2019-06-15T00:49:18.090Z,12.37
2019-06-15T00:51:47.997Z,12.67
2019-06-15T00:54:18.280Z,13.22
2019-06-15T00:56:48.109Z,13.32
2019-06-15T00:59:18.051Z,11.87
2019-06-15T01:01:48.152Z,11.08
2019-06-15T01:04:18.071Z,12.53
2019-06-15T01:06:48.061Z,12.27
2019-06-15T01:09:18.494Z,10.65
2019-06-15T01:11:49.634Z,10.45
2019-06-15T01:14:21.819Z,11.43
2019-06-15T01:16:51.174Z,12.43
2019-06-15T01:19:20.584Z,11.37
2019-06-15T01:21:50.042Z,10.70
2019-06-15T01:24:19.405Z,11.47
2019-06-15T01:26:48.780Z,11.37
2019-06-15T01:29:18.320Z,10.87
2019-06-15T01:31:48.260Z,8.90
2019-06-15T01:34:20.381Z,8.50
2019-06-15T01:36:49.782Z,7.93
2019-06-15T01:39:19.179Z,8.83
2019-06-15T01:41:48.552Z,7.90
2019-06-15T01:44:18.234Z,8.13
2019-06-15T01:46:48.251Z,7.17
2019-06-15T01:49:18.299Z,6.80
2019-06-15T01:51:48.300Z,8.60
2019-06-15T01:54:20.603Z,6.93
2019-06-15T01:56:53.033Z,7.27
2019-06-15T01:59:25.209Z,7.77
2019-06-15T02:01:54.563Z,7.47
2019-06-15T02:04:23.946Z,8.13
2019-06-15T02:06:56.294Z,7.13
2019-06-15T02:09:25.644Z,7.40
2019-06-15T02:11:55.075Z,7.90
2019-06-15T02:14:24.565Z,9.17
2019-06-15T02:16:55.693Z,7.62
2019-06-15T02:19:25.101Z,8.50
2019-06-15T02:21:54.489Z,9.60
2019-06-15T02:24:23.855Z,9.20
2019-06-15T02:26:53.167Z,9.18
2019-06-15T02:29:22.561Z,8.90
2019-06-15T02:31:51.955Z,9.10
2019-06-15T02:34:21.380Z,9.70
2019-06-15T02:36:50.753Z,11.27
2019-06-15T02:39:20.158Z,10.73
2019-06-15T02:41:50.356Z,8.73
2019-06-15T02:44:20.028Z,12.40
2019-06-15T02:46:49.431Z,13.33
2019-06-15T02:49:18.878Z,11.97
2019-06-15T02:51:48.667Z,12.13
2019-06-15T02:54:18.711Z,11.33
2019-06-15T02:56:48.740Z,12.63
2019-06-15T02:59:18.810Z,13.87
2019-06-15T03:01:48.926Z,12.57
2019-06-15T03:04:18.827Z,14.00
2019-06-15T03:06:49.429Z,13.60
2019-06-15T03:09:18.923Z,12.93
2019-06-15T03:11:49.221Z,12.67
2019-06-15T03:14:19.021Z,12.40
2019-06-15T03:16:49.011Z,13.77
2019-06-15T03:19:19.068Z,13.70
2019-06-15T03:21:48.981Z,13.83
2019-06-15T03:24:19.096Z,11.97
2019-06-15T03:26:49.109Z,12.17
2019-06-15T03:29:19.178Z,11.50
2019-06-15T03:31:49.208Z,12.47
2019-06-15T03:34:19.150Z,12.03
2019-06-15T03:36:49.348Z,11.57
2019-06-15T03:39:19.310Z,11.90
2019-06-15T03:41:49.461Z,13.20
2019-06-15T03:44:19.434Z,14.45
2019-06-15T03:46:49.395Z,13.27
2019-06-15T03:49:19.410Z,14.80
2019-06-15T03:51:49.365Z,15.33
2019-06-15T03:54:19.464Z,16.80
2019-06-15T03:56:54.010Z,17.37
2019-06-15T03:59:23.482Z,15.97
2019-06-15T04:01:53.043Z,18.23
2019-06-15T04:04:22.443Z,17.87
2019-06-15T04:06:51.836Z,19.00
2019-06-15T04:09:21.256Z,19.10
2019-06-15T04:11:50.605Z,19.60
2019-06-15T04:14:20.071Z,18.90
2019-06-15T04:16:49.879Z,19.30
2019-06-15T04:19:19.779Z,16.87
2019-06-15T04:21:49.892Z,17.87
2019-06-15T04:24:19.885Z,20.70
2019-06-15T04:26:49.837Z,16.83
2019-06-15T04:29:19.875Z,21.40
2019-06-15T04:31:50.019Z,20.40
2019-06-15T04:34:19.974Z,22.85
2019-06-15T04:36:50.028Z,22.32
2019-06-15T04:39:20.075Z,20.73
2019-06-15T04:41:50.094Z,19.80
2019-06-15T04:44:20.025Z,18.60
2019-06-15T04:46:50.139Z,21.07
2019-06-15T04:49:20.284Z,20.70
2019-06-15T04:51:50.156Z,22.03
2019-06-15T04:54:20.580Z,22.50
2019-06-15T04:56:51.334Z,21.90
2019-06-15T04:59:20.806Z,24.47
2019-06-15T05:01:50.607Z,22.00
2019-06-15T05:04:20.407Z,23.47
2019-06-15T05:06:50.447Z,22.42
2019-06-15T05:09:20.510Z,26.90
2019-06-15T05:11:50.558Z,22.65
2019-06-15T05:14:20.617Z,20.63
2019-06-15T05:16:50.634Z,23.47
2019-06-15T05:19:20.689Z,24.73
2019-06-15T05:21:50.787Z,24.98
2019-06-15T05:24:20.774Z,26.97
2019-06-15T05:27:05.285Z,27.77
2019-06-15T05:29:22.099Z,29.27
2019-06-15T05:31:51.597Z,25.03
2019-06-15T05:34:20.967Z,28.20
2019-06-15T05:36:50.929Z,26.37
2019-06-15T05:39:20.990Z,26.82
2019-06-15T05:41:51.118Z,27.40
2019-06-15T05:44:22.913Z,23.60
2019-06-15T05:46:52.363Z,24.07
2019-06-15T05:49:21.825Z,23.07
2019-06-15T05:51:51.305Z,23.57
2019-06-15T05:54:21.122Z,24.40
2019-06-15T05:56:51.343Z,23.35
2019-06-15T05:59:24.229Z,25.25
2019-06-15T06:01:53.629Z,23.67
2019-06-15T06:04:23.113Z,25.17
2019-06-15T06:06:52.530Z,25.43
2019-06-15T06:09:22.029Z,23.83
2019-06-15T06:11:51.487Z,22.27
2019-06-15T06:14:21.431Z,24.00
2019-06-15T06:16:51.445Z,19.57
2019-06-15T06:19:21.634Z,22.10
2019-06-15T06:21:51.649Z,21.27
2019-06-15T06:24:21.663Z,20.13
2019-06-15T06:26:51.767Z,19.33
2019-06-15T06:29:21.762Z,19.07
2019-06-15T06:31:51.747Z,19.47
2019-06-15T06:34:21.735Z,19.23
2019-06-15T06:36:51.739Z,18.27
2019-06-15T06:39:24.087Z,18.63
2019-06-15T06:41:53.493Z,17.87
2019-06-15T06:44:24.636Z,17.13
2019-06-15T06:46:54.108Z,18.27
2019-06-15T06:49:23.478Z,17.80
2019-06-15T06:51:55.972Z,14.43
2019-06-15T06:54:25.418Z,15.47
2019-06-15T06:56:54.836Z,14.57
2019-06-15T06:59:24.237Z,15.23
2019-06-15T07:01:53.703Z,14.00
2019-06-15T07:04:23.078Z,17.50
2019-06-15T07:06:52.531Z,17.60
2019-06-15T07:09:22.608Z,16.55
2019-06-15T07:11:52.641Z,18.33
2019-06-15T07:14:22.684Z,17.98
2019-06-15T07:16:52.738Z,18.32
2019-06-15T07:19:22.663Z,16.30
2019-06-15T07:21:52.729Z,16.73
2019-06-15T07:24:22.901Z,16.85
2019-06-15T07:26:52.892Z,15.72
2019-06-15T07:29:22.872Z,16.37
2019-06-15T07:31:52.891Z,14.80
2019-06-15T07:34:22.924Z,14.80
2019-06-15T07:36:52.980Z,14.50
2019-06-15T07:39:23.136Z,15.50
2019-06-15T07:41:53.038Z,13.40
2019-06-15T07:44:24.508Z,13.70
2019-06-15T07:46:53.947Z,12.30
2019-06-15T07:49:23.316Z,12.57
2019-06-15T07:51:53.432Z,12.93
2019-06-15T07:54:23.465Z,13.80
2019-06-15T07:56:53.479Z,12.97
2019-06-15T07:59:23.478Z,10.00
2019-06-15T08:01:53.539Z,10.40
2019-06-15T08:04:23.719Z,9.70
2019-06-15T08:06:53.878Z,8.98
2019-06-15T08:09:23.681Z,10.83
2019-06-15T08:11:53.732Z,11.80
2019-06-15T08:14:23.743Z,11.60
2019-06-15T08:16:53.983Z,12.00
2019-06-15T08:19:24.781Z,11.28
2019-06-15T08:21:55.125Z,10.10
2019-06-15T08:24:24.474Z,9.23
2019-06-15T08:26:54.016Z,10.30
2019-06-15T08:29:24.045Z,9.27
2019-06-15T08:31:54.082Z,10.32
2019-06-15T08:34:25.177Z,8.50
2019-06-15T08:36:54.535Z,9.07
2019-06-15T08:39:24.088Z,8.70
2019-06-15T08:41:56.867Z,8.13
2019-06-15T08:44:25.360Z,7.63
2019-06-15T08:46:54.808Z,7.67
2019-06-15T08:49:24.214Z,7.87
2019-06-15T08:51:54.337Z,7.60
2019-06-15T08:54:24.238Z,7.57
2019-06-15T08:56:54.434Z,7.60
2019-06-15T08:59:24.588Z,8.30
2019-06-15T09:01:54.621Z,9.27
2019-06-15T09:04:24.659Z,9.40
2019-06-15T09:06:54.693Z,10.10
2019-06-15T09:09:24.732Z,10.20
2019-06-15T09:11:54.652Z,9.67
2019-06-15T09:14:24.897Z,9.90
2019-06-15T09:16:54.888Z,10.28
2019-06-15T09:19:24.956Z,9.67
2019-06-15T09:21:54.933Z,11.48
2019-06-15T09:24:24.901Z,11.57
2019-06-15T09:26:54.925Z,11.68
2019-06-15T09:29:24.986Z,10.23
2019-06-15T09:31:55.099Z,10.90
2019-06-15T09:34:25.132Z,12.73
2019-06-15T09:36:55.244Z,11.77
2019-06-15T09:39:25.212Z,12.87
2019-06-15T09:41:55.272Z,12.20
2019-06-15T09:44:25.237Z,12.77
2019-06-15T09:46:55.604Z,12.03
2019-06-15T09:49:25.445Z,10.93
2019-06-15T09:51:55.536Z,12.50
2019-06-15T09:54:28.016Z,12.57
2019-06-15T09:56:59.166Z,12.63
2019-06-15T09:59:28.734Z,12.90
2019-06-15T10:01:58.224Z,12.50
2019-06-15T10:04:27.628Z,11.83
2019-06-15T10:06:57.108Z,12.30
2019-06-15T10:09:26.614Z,13.70
2019-06-15T10:11:56.003Z,12.10
2019-06-15T10:14:25.820Z,13.37
2019-06-15T10:16:57.238Z,11.53
2019-06-15T10:19:26.692Z,12.60
2019-06-15T10:21:56.154Z,12.00
2019-06-15T10:24:25.902Z,10.17
2019-06-15T10:26:56.029Z,10.20
2019-06-15T10:29:38.604Z,9.25
2019-06-15T10:31:57.158Z,9.77
2019-06-15T10:34:26.688Z,8.43
2019-06-15T10:36:56.108Z,7.70
2019-06-15T10:39:26.207Z,7.23
2019-06-15T10:41:56.264Z,6.57
2019-06-15T10:44:26.272Z,6.20
2019-06-15T10:46:56.367Z,6.37
2019-06-15T10:49:30.683Z,4.60
2019-06-15T10:52:00.136Z,5.33
2019-06-15T10:54:29.573Z,3.80
2019-06-15T10:56:58.972Z,3.97
2019-06-15T10:59:28.378Z,3.30
2019-06-15T11:01:58.219Z,2.50
2019-06-15T11:04:27.707Z,2.40
2019-06-15T11:06:57.108Z,2.73
2019-06-15T11:09:26.629Z,2.70
2019-06-15T11:11:58.059Z,2.60
2019-06-15T11:14:27.510Z,5.77
2019-06-15T11:16:58.658Z,2.12
2019-06-15T11:19:28.157Z,1.70
2019-06-15T11:21:57.621Z,1.80
2019-06-15T11:24:27.029Z,1.62
2019-06-15T11:26:56.913Z,3.33
2019-06-15T11:29:26.942Z,3.77
2019-06-15T11:31:56.975Z,3.52
2019-06-15T11:34:27.050Z,2.68
2019-06-15T11:36:57.028Z,2.00
2019-06-15T11:39:27.092Z,2.12
2019-06-15T11:41:57.203Z,1.92
2019-06-15T11:44:27.247Z,1.82
2019-06-15T11:46:57.215Z,2.20
2019-06-15T11:49:27.270Z,1.70
2019-06-15T11:51:57.289Z,1.70
2019-06-15T11:54:27.388Z,1.70
2019-06-15T11:56:57.576Z,1.70
2019-06-15T11:59:27.681Z,1.70
2019-06-15T12:01:57.728Z,1.75
2019-06-15T12:04:27.779Z,1.80
2019-06-15T12:06:57.778Z,1.62
2019-06-15T12:09:27.762Z,1.77
2019-06-15T12:11:57.897Z,1.80
2019-06-15T12:14:28.115Z,1.90
2019-06-15T12:16:58.145Z,1.68
2019-06-15T12:19:28.062Z,1.55
2019-06-15T12:21:58.124Z,1.60
2019-06-15T12:24:28.266Z,2.20
2019-06-15T12:26:58.522Z,2.15
2019-06-15T12:29:28.367Z,2.20
2019-06-15T12:31:58.185Z,2.02
2019-06-15T12:34:28.585Z,2.40
2019-06-15T12:37:00.325Z,2.40
2019-06-15T12:39:30.063Z,2.30
2019-06-15T12:41:59.460Z,1.98
2019-06-15T12:44:28.919Z,2.30
2019-06-15T12:46:58.541Z,2.12
2019-06-15T12:49:28.799Z,1.95
2019-06-15T12:51:58.573Z,2.12
2019-06-15T12:54:28.538Z,1.72
2019-06-15T12:56:58.496Z,1.90
2019-06-15T12:59:28.590Z,2.40
2019-06-15T13:01:59.801Z,2.25
2019-06-15T13:04:29.242Z,2.40
2019-06-15T13:06:58.740Z,2.07
2019-06-15T13:09:28.867Z,2.60
2019-06-15T13:11:58.732Z,2.77
2019-06-15T13:14:29.116Z,2.70
2019-06-15T13:16:58.968Z,2.60
2019-06-15T13:19:30.133Z,2.46
2019-06-15T13:21:59.542Z,2.45
2019-06-15T13:24:28.998Z,3.67
2019-06-15T13:26:59.126Z,3.52
2019-06-15T13:29:29.142Z,3.14
2019-06-15T13:31:59.058Z,2.80
2019-06-15T13:34:29.201Z,2.62
2019-06-15T13:36:59.046Z,3.22
2019-06-15T13:39:31.719Z,3.12
2019-06-15T13:42:01.123Z,2.98
2019-06-15T13:44:30.570Z,3.20
2019-06-15T13:47:00.009Z,2.95
2019-06-15T13:49:29.702Z,6.67
2019-06-15T13:51:59.840Z,3.80
2019-06-15T13:54:29.982Z,3.06
2019-06-15T13:56:59.909Z,3.00
2019-06-15T13:59:30.071Z,3.00
2019-06-15T14:01:59.993Z,3.20
2019-06-15T14:04:30.020Z,3.40
2019-06-15T14:07:00.045Z,2.87
2019-06-15T14:09:30.056Z,3.50
2019-06-15T14:14:41.859Z,3.55
2019-06-15T14:17:11.241Z,3.58
2019-06-15T14:19:40.718Z,3.95
2019-06-15T14:22:10.151Z,4.20
2019-06-15T14:24:39.646Z,3.87
2019-06-15T14:27:09.067Z,3.77
2019-06-15T14:29:41.367Z,3.75
2019-06-15T14:32:13.310Z,4.37
2019-06-15T14:34:42.762Z,3.85
2019-06-15T14:37:12.199Z,3.67
2019-06-15T14:39:41.679Z,3.50
2019-06-15T14:42:11.133Z,4.17
2019-06-15T14:44:40.595Z,3.33
2019-06-15T14:47:09.998Z,4.47
2019-06-15T14:49:39.417Z,4.00
2019-06-15T14:52:08.917Z,4.40
2019-06-15T14:54:38.398Z,3.67
2019-06-15T14:57:07.864Z,4.12
2019-06-15T14:59:53.445Z,3.63
2019-06-15T15:02:13.868Z,3.45
2019-06-15T15:04:40.205Z,4.35
2019-06-15T15:07:09.630Z,3.80
2019-06-15T15:09:39.115Z,3.92
2019-06-15T15:12:08.555Z,3.50
2019-06-15T15:14:37.966Z,3.50
2019-06-15T15:17:07.425Z,3.60
2019-06-15T15:19:36.862Z,3.60
2019-06-15T15:22:06.278Z,3.52
2019-06-15T15:24:35.747Z,3.68
2019-06-15T15:27:05.197Z,3.60
2019-06-15T15:29:34.597Z,3.60
2019-06-15T15:32:04.080Z,3.52
2019-06-15T15:34:33.670Z,3.98
2019-06-15T15:37:03.065Z,4.47
2019-06-15T15:39:32.520Z,4.30
2019-06-15T15:42:01.948Z,4.10
2019-06-15T15:44:31.975Z,3.60
2019-06-15T15:47:01.957Z,3.22
2019-06-15T15:49:32.112Z,3.80
2019-06-15T15:52:01.924Z,3.75
2019-06-15T15:54:31.992Z,4.40
2019-06-15T15:57:02.084Z,4.42
2019-06-15T15:59:32.087Z,4.18
2019-06-15T16:02:02.096Z,4.50
2019-06-15T16:04:32.174Z,4.00
2019-06-15T16:07:02.173Z,4.40
2019-06-15T16:09:32.166Z,4.25
2019-06-15T16:12:02.326Z,4.08
2019-06-15T16:14:32.306Z,5.06
2019-06-15T16:17:06.684Z,5.20
2019-06-15T16:19:36.132Z,4.42
2019-06-15T16:22:05.634Z,5.20
2019-06-15T16:24:37.439Z,5.53
2019-06-15T16:27:07.133Z,5.72
2019-06-15T16:29:37.322Z,5.55
2019-06-15T16:32:07.214Z,5.95
2019-06-15T16:34:36.760Z,4.94
2019-06-15T16:37:06.613Z,5.67
2019-06-15T16:39:36.254Z,5.17
2019-06-15T16:42:06.589Z,5.20
2019-06-15T16:44:36.579Z,5.72
2019-06-15T16:47:06.194Z,5.50
2019-06-15T16:49:36.370Z,4.92
2019-06-15T16:52:06.272Z,4.62
2019-06-15T16:54:36.119Z,4.92
2019-06-15T16:57:05.873Z,4.80
2019-06-15T16:59:36.375Z,4.90
2019-06-15T17:02:06.464Z,4.50
2019-06-15T17:04:36.479Z,4.55
2019-06-15T17:07:07.179Z,4.80
2019-06-15T17:09:36.792Z,4.25
2019-06-15T17:12:06.650Z,4.40
2019-06-15T17:14:36.540Z,4.58
2019-06-15T17:17:06.020Z,4.78
2019-06-15T17:19:36.314Z,5.12
2019-06-15T17:22:14.711Z,4.75
2019-06-15T17:24:37.175Z,5.37
2019-06-15T17:27:06.583Z,4.97
2019-06-15T17:29:36.003Z,4.42
2019-06-15T17:32:06.369Z,3.67
2019-06-15T17:34:36.380Z,4.25
2019-06-15T17:37:06.827Z,4.45
2019-06-15T17:39:37.511Z,4.95
2019-06-15T17:42:07.171Z,4.30
2019-06-15T17:44:37.046Z,4.22
2019-06-15T17:47:07.270Z,4.72
2019-06-15T17:49:37.217Z,4.25
2019-06-15T17:52:06.738Z,4.47
2019-06-15T17:54:37.373Z,4.40
2019-06-15T17:57:07.046Z,4.35
2019-06-15T17:59:36.586Z,4.87
2019-06-15T18:02:06.378Z,4.42
2019-06-15T18:04:37.160Z,4.67
2019-06-15T18:07:06.810Z,4.42
2019-06-15T18:09:36.855Z,4.30
2019-06-15T18:12:06.706Z,4.67
2019-06-15T18:14:36.699Z,4.20
2019-06-15T18:17:07.278Z,4.37
2019-06-15T18:19:36.995Z,4.25
2019-06-15T18:22:07.228Z,3.80
2019-06-15T18:24:37.320Z,4.25
2019-06-15T18:27:09.450Z,3.85
2019-06-15T18:29:38.056Z,3.67
2019-06-15T18:32:07.469Z,3.75
2019-06-15T18:34:36.978Z,3.80
2019-06-15T18:37:07.683Z,3.52
2019-06-15T18:39:37.176Z,3.83
2019-06-15T18:42:07.727Z,4.40
2019-06-15T18:44:37.470Z,4.25
2019-06-15T18:47:07.247Z,4.20
2019-06-15T18:49:36.719Z,3.70
2019-06-15T18:52:06.296Z,3.58
2019-06-15T18:54:36.331Z,4.13
2019-06-15T18:57:07.436Z,4.22
2019-06-15T18:59:37.104Z,4.20
2019-06-15T19:02:06.799Z,4.27
2019-06-15T19:04:36.142Z,4.20
2019-06-15T19:07:06.634Z,3.92
2019-06-15T19:09:36.320Z,5.05
2019-06-15T19:12:07.082Z,3.92
2019-06-15T19:14:36.589Z,4.30
2019-06-15T19:17:06.217Z,4.27
2019-06-15T19:19:37.719Z,4.80
2019-06-15T19:22:07.072Z,4.87
2019-06-15T19:24:36.872Z,4.40
2019-06-15T19:27:08.294Z,4.63
2019-06-15T19:29:37.534Z,5.03
2019-06-15T19:32:08.168Z,3.83
2019-06-15T19:34:47.046Z,3.80
2019-06-15T19:37:08.989Z,4.22
2019-06-15T19:39:38.718Z,3.70
2019-06-15T19:42:08.355Z,3.83
2019-06-15T19:44:37.788Z,4.30
2019-06-15T19:47:07.308Z,4.20
2019-06-15T19:49:36.670Z,3.73
2019-06-15T19:52:06.629Z,4.00
2019-06-15T19:54:36.608Z,4.30
2019-06-15T19:57:06.866Z,4.57
2019-06-15T19:59:36.653Z,4.30
2019-06-15T20:02:07.804Z,4.53
2019-06-15T20:04:37.833Z,4.30
2019-06-15T20:07:07.285Z,4.73
2019-06-15T20:09:37.200Z,4.30
2019-06-15T20:12:17.881Z,4.60
2019-06-15T20:14:37.860Z,4.57
2019-06-15T20:17:07.484Z,4.23
2019-06-15T20:19:37.680Z,4.60
2019-06-15T20:22:07.116Z,4.83
2019-06-15T20:24:36.586Z,4.70
2019-06-15T20:27:10.107Z,5.23
2019-06-15T20:29:37.699Z,5.33
2019-06-15T20:32:07.174Z,5.83
2019-06-15T20:34:37.244Z,5.73
2019-06-15T20:37:06.834Z,6.07
2019-06-15T20:39:36.641Z,6.20
2019-06-15T20:42:07.883Z,6.25
2019-06-15T20:44:37.914Z,6.23
2019-06-15T20:47:07.328Z,6.10
2019-06-15T20:49:37.091Z,6.87
2019-06-15T20:52:07.215Z,6.50
2019-06-15T20:54:36.901Z,5.87
2019-06-15T20:57:06.883Z,5.65
2019-06-15T20:59:37.156Z,6.10
2019-06-15T21:02:06.962Z,6.60
2019-06-15T21:04:36.983Z,6.20
2019-06-15T21:07:07.007Z,6.00
2019-06-15T21:09:37.015Z,5.90
2019-06-15T21:12:07.099Z,6.00
2019-06-15T21:14:37.143Z,6.03
2019-06-15T21:17:07.238Z,6.00
2019-06-15T21:19:37.156Z,7.15
2019-06-15T21:22:09.319Z,8.13
2019-06-15T21:24:38.745Z,7.07
2019-06-15T21:27:08.149Z,7.53
2019-06-15T21:29:37.534Z,7.77
2019-06-15T21:32:07.459Z,7.70
2019-06-15T21:34:37.483Z,9.03
2019-06-15T21:37:07.588Z,7.90
2019-06-15T21:39:37.532Z,8.77
2019-06-15T21:42:07.592Z,8.00
2019-06-15T21:44:37.538Z,8.33
2019-06-15T21:47:07.591Z,9.37
2019-06-15T21:49:37.641Z,8.77
2019-06-15T21:52:07.707Z,8.60
2019-06-15T21:54:37.848Z,7.58
2019-06-15T21:57:07.738Z,7.17
2019-06-15T21:59:37.823Z,7.50
2019-06-15T22:02:07.875Z,7.97
2019-06-15T22:04:38.304Z,7.20
2019-06-15T22:07:08.406Z,7.77
2019-06-15T22:09:38.301Z,7.70
2019-06-15T22:12:08.323Z,7.40
2019-06-15T22:14:38.327Z,8.53
2019-06-15T22:17:08.415Z,7.63
2019-06-15T22:19:38.421Z,7.30
2019-06-15T22:22:08.409Z,8.17
2019-06-15T22:24:38.478Z,8.23
2019-06-15T22:27:08.535Z,8.80
2019-06-15T22:29:38.533Z,8.08
2019-06-15T22:32:08.527Z,8.60
2019-06-15T22:34:38.893Z,9.50
2019-06-15T22:37:08.766Z,9.33
2019-06-15T22:39:38.746Z,8.45
2019-06-15T22:42:08.816Z,8.47
2019-06-15T22:44:38.985Z,8.90
2019-06-15T22:47:09.064Z,9.13
2019-06-15T22:49:39.057Z,10.70
2019-06-15T22:52:09.139Z,10.70
2019-06-15T22:54:39.253Z,10.45
2019-06-15T22:57:09.272Z,10.28
2019-06-15T22:59:39.210Z,9.80
2019-06-15T23:02:09.209Z,10.63
2019-06-15T23:04:39.033Z,11.50
2019-06-15T23:07:09.303Z,11.43
2019-06-15T23:09:39.272Z,9.53
2019-06-15T23:12:09.390Z,10.00
2019-06-15T23:14:39.398Z,10.90
2019-06-15T23:17:09.410Z,11.53
2019-06-15T23:19:39.395Z,11.00
2019-06-15T23:22:09.437Z,11.00
2019-06-15T23:24:39.569Z,11.38
2019-06-15T23:27:09.453Z,10.63
2019-06-15T23:29:39.676Z,10.13
2019-06-15T23:32:09.784Z,10.67
2019-06-15T23:34:39.797Z,10.80
2019-06-15T23:37:11.773Z,10.17
2019-06-15T23:39:42.799Z,11.30
2019-06-15T23:42:12.228Z,11.00
2019-06-15T23:44:41.684Z,11.50
2019-06-15T23:47:11.039Z,10.50
2019-06-15T23:49:40.564Z,11.30
2019-06-15T23:52:09.967Z,9.33
2019-06-15T23:54:40.141Z,11.53
2019-06-15T23:57:10.089Z,10.30
2019-06-15T23:59:40.111Z,10.45
